Time;durP1;ratioP1;P1;durP2;ratioP2;P2;SDS_P1;SDS_P2;PMS_P1;PMS_P2;Temp;Humidity;BMP_temperature;BMP_pressure;BME280_temperature;BME280_humidity;BME280_pressure;Samples;Min_cycle;Max_cycle;Signal;HPM_P1;HPM_P2
2023/09/01 00:00:30;;;;;;;1.88;1.05;;;18.40;99.90;;;;;;7387812;19;20150;-79
2023/09/01 00:02:56;;;;;;;5.00;1.40;;;18.30;99.90;;;;;;7387972;19;20169;-78
2023/09/01 00:05:22;;;;;;;3.00;1.48;;;18.40;99.90;;;;;;7384015;19;20154;-78
2023/09/01 00:07:48;;;;;;;1.45;1.00;;;18.50;99.90;;;;;;7388730;19;20420;-78
2023/09/01 00:10:13;;;;;;;2.70;1.38;;;18.50;99.90;;;;;;7387682;19;20169;-79
2023/09/01 00:12:39;;;;;;;3.53;1.38;;;18.40;99.90;;;;;;7389201;19;20146;-79
2023/09/01 00:15:05;;;;;;;3.03;1.33;;;18.30;99.90;;;;;;7387326;19;20142;-78
2023/09/01 00:17:31;;;;;;;2.40;1.30;;;18.30;99.90;;;;;;7385854;19;20138;-78
2023/09/01 00:19:57;;;;;;;2.92;1.50;;;18.40;99.90;;;;;;7390698;19;20131;-78
2023/09/01 00:22:23;;;;;;;2.55;1.60;;;18.40;99.90;;;;;;7387971;19;20759;-78
2023/09/01 00:24:48;;;;;;;3.22;1.38;;;18.30;99.90;;;;;;7388396;19;20137;-78
2023/09/01 00:27:14;;;;;;;1.52;1.23;;;18.40;99.90;;;;;;7387926;19;20134;-79
2023/09/01 00:29:40;;;;;;;1.48;1.20;;;18.30;99.90;;;;;;7383284;19;20246;-78
2023/09/01 00:32:06;;;;;;;2.70;1.23;;;18.30;99.90;;;;;;7389848;19;20130;-78
2023/09/01 00:34:32;;;;;;;2.85;1.33;;;18.40;99.90;;;;;;7388931;19;20131;-78
2023/09/01 00:36:58;;;;;;;3.58;1.10;;;18.40;99.90;;;;;;7388177;19;20153;-78
2023/09/01 00:39:24;;;;;;;3.08;1.70;;;18.50;99.90;;;;;;7388267;19;20246;-77
2023/09/01 00:41:49;;;;;;;4.30;2.53;;;18.40;99.90;;;;;;7387200;19;20568;-78
2023/09/01 00:44:15;;;;;;;2.63;1.23;;;18.30;99.90;;;;;;7386258;19;20138;-77
2023/09/01 00:46:43;;;;;;;2.60;1.38;;;18.30;99.90;;;;;;7388137;19;20130;-78
2023/09/01 00:49:10;;;;;;;1.73;1.33;;;18.50;99.90;;;;;;7383969;19;20130;-77
2023/09/01 00:51:37;;;;;;;3.38;1.52;;;18.50;99.90;;;;;;7389330;19;20141;-78
2023/09/01 00:54:03;;;;;;;3.10;1.40;;;18.50;99.90;;;;;;7385170;19;20149;-78
2023/09/01 00:56:34;;;;;;;2.55;1.25;;;18.50;99.90;;;;;;7387456;19;20184;-78
2023/09/01 00:59:00;;;;;;;1.60;1.17;;;18.50;99.90;;;;;;7383565;19;20157;-78
2023/09/01 01:01:26;;;;;;;4.60;1.70;;;18.50;99.90;;;;;;7395250;19;20217;-78
2023/09/01 01:03:52;;;;;;;1.65;1.48;;;18.40;99.90;;;;;;7392172;19;20151;-77
2023/09/01 01:06:24;;;;;;;1.63;0.98;;;18.40;99.90;;;;;;7391903;19;20154;-78
2023/09/01 01:09:13;;;;;;;4.30;1.35;;;18.40;99.90;;;;;;7394952;19;20130;-78
2023/09/01 01:11:44;;;;;;;2.28;1.15;;;18.20;99.90;;;;;;7391483;19;20610;-79
2023/09/01 01:14:27;;;;;;;3.00;1.35;;;18.30;99.90;;;;;;7392950;19;20142;-78
2023/09/01 01:16:54;;;;;;;4.90;1.52;;;18.40;99.90;;;;;;7395923;19;20142;-78
2023/09/01 01:19:48;;;;;;;2.75;1.58;;;18.40;99.90;;;;;;7391985;19;20611;-79
2023/09/01 01:22:14;;;;;;;3.33;1.50;;;18.40;99.90;;;;;;7394876;19;20131;-78
2023/09/01 01:24:40;;;;;;;3.55;1.20;;;18.40;99.90;;;;;;7393741;19;20145;-79
2023/09/01 01:27:06;;;;;;;2.10;1.23;;;18.60;99.90;;;;;;7394265;19;20494;-78
2023/09/01 01:29:31;;;;;;;3.90;1.20;;;18.50;99.90;;;;;;7388184;19;20229;-78
2023/09/01 01:31:59;;;;;;;2.20;1.10;;;18.60;99.90;;;;;;7391107;19;20161;-78
2023/09/01 01:34:39;;;;;;;3.75;1.30;;;18.50;99.90;;;;;;7391172;19;20214;-78
2023/09/01 01:37:05;;;;;;;3.60;1.33;;;18.60;99.90;;;;;;7395032;19;20142;-78
2023/09/01 01:39:33;;;;;;;1.52;1.20;;;18.60;99.90;;;;;;7393128;19;20206;-79
2023/09/01 01:42:09;;;;;;;2.70;1.38;;;18.40;99.90;;;;;;7392808;19;20138;-79
2023/09/01 01:44:38;;;;;;;3.20;1.20;;;18.50;99.90;;;;;;7393871;19;20142;-78
2023/09/01 01:47:05;;;;;;;2.38;1.27;;;18.40;99.90;;;;;;7391131;19;20178;-79
2023/09/01 01:49:31;;;;;;;3.33;1.20;;;18.40;99.90;;;;;;7390806;19;20146;-77
2023/09/01 01:51:58;;;;;;;1.70;1.25;;;18.40;99.90;;;;;;7392023;19;20159;-78
2023/09/01 01:54:24;;;;;;;3.30;1.30;;;18.30;99.90;;;;;;7392154;19;20138;-78
2023/09/01 01:56:49;;;;;;;2.35;1.50;;;18.30;99.90;;;;;;7390613;19;20203;-78
2023/09/01 01:59:16;;;;;;;2.58;1.55;;;18.10;99.90;;;;;;7391799;19;20508;-78
2023/09/01 02:01:42;;;;;;;1.65;1.30;;;18.10;99.90;;;;;;7391863;19;20142;-77
2023/09/01 02:04:08;;;;;;;3.28;1.23;;;18.20;99.90;;;;;;7390614;19;20169;-78
2023/09/01 02:06:33;;;;;;;2.13;1.65;;;18.30;99.90;;;;;;7391939;19;20162;-78
2023/09/01 02:08:59;;;;;;;2.55;1.33;;;18.30;99.90;;;;;;7388360;19;20173;-77
2023/09/01 02:11:25;;;;;;;1.67;1.30;;;18.30;99.90;;;;;;7393724;19;20135;-77
2023/09/01 02:13:53;;;;;;;1.80;1.40;;;18.20;99.90;;;;;;7391152;19;21095;-77
2023/09/01 02:16:23;;;;;;;1.85;1.45;;;18.20;99.90;;;;;;7392413;19;20146;-79
2023/09/01 02:18:49;;;;;;;2.40;1.20;;;18.20;99.90;;;;;;7393383;19;20151;-79
2023/09/01 02:21:21;;;;;;;2.90;1.30;;;18.30;99.90;;;;;;7392400;19;20143;-80
2023/09/01 02:23:47;;;;;;;2.08;1.00;;;18.20;99.90;;;;;;7393339;19;20639;-78
2023/09/01 02:26:20;;;;;;;1.75;1.30;;;18.10;99.90;;;;;;7389999;19;20145;-78
2023/09/01 02:28:47;;;;;;;3.13;1.10;;;18.00;99.90;;;;;;7390976;19;20158;-77
2023/09/01 02:31:14;;;;;;;2.75;1.15;;;18.20;99.90;;;;;;7389308;19;20151;-79
2023/09/01 02:33:40;;;;;;;1.60;1.17;;;18.30;99.90;;;;;;7391025;19;20181;-78
2023/09/01 02:36:31;;;;;;;3.85;1.38;;;18.30;99.90;;;;;;7389031;19;20530;-79
2023/09/01 02:38:57;;;;;;;3.13;0.95;;;18.40;99.90;;;;;;7391100;19;20462;-79
2023/09/01 02:41:24;;;;;;;3.35;0.90;;;18.20;99.90;;;;;;7391605;19;20161;-78
2023/09/01 02:43:50;;;;;;;1.77;1.10;;;18.40;99.90;;;;;;7391904;19;20587;-79
2023/09/01 02:46:16;;;;;;;1.75;1.02;;;18.20;99.90;;;;;;7391036;19;20179;-77
2023/09/01 02:48:42;;;;;;;1.10;0.93;;;18.10;99.90;;;;;;7388567;19;20210;-81
2023/09/01 02:51:07;;;;;;;3.03;1.35;;;18.30;99.90;;;;;;7392500;19;20142;-78
2023/09/01 02:53:34;;;;;;;2.08;1.10;;;18.40;99.90;;;;;;7390178;19;22052;-79
2023/09/01 02:56:03;;;;;;;2.25;1.40;;;18.40;99.90;;;;;;7388014;19;20159;-77
2023/09/01 02:58:29;;;;;;;2.65;1.10;;;18.40;99.90;;;;;;7390856;19;20567;-78
2023/09/01 03:00:55;;;;;;;1.85;1.20;;;18.40;99.90;;;;;;7391315;19;20138;-78
2023/09/01 03:03:21;;;;;;;2.72;1.20;;;18.30;99.90;;;;;;7389251;19;20131;-78
2023/09/01 03:05:49;;;;;;;1.65;0.88;;;18.30;99.90;;;;;;7387122;19;20178;-78
2023/09/01 03:08:17;;;;;;;2.13;1.10;;;18.30;99.90;;;;;;7390218;19;20489;-78
2023/09/01 03:10:45;;;;;;;2.28;1.10;;;18.40;99.90;;;;;;7390035;19;20268;-77
2023/09/01 03:13:11;;;;;;;1.85;1.10;;;18.40;99.90;;;;;;7388853;19;20627;-78
2023/09/01 03:15:37;;;;;;;3.70;1.13;;;18.40;99.90;;;;;;7388763;19;20151;-77
2023/09/01 03:18:03;;;;;;;1.85;1.20;;;18.40;99.90;;;;;;7388479;19;20155;-77
2023/09/01 03:20:29;;;;;;;2.00;1.23;;;18.30;99.90;;;;;;7387391;19;20177;-77
2023/09/01 03:22:54;;;;;;;2.58;1.10;;;18.30;99.90;;;;;;7390058;19;20134;-78
2023/09/01 03:25:20;;;;;;;2.22;1.10;;;18.30;99.90;;;;;;7388357;19;20134;-78
2023/09/01 03:27:46;;;;;;;2.40;1.25;;;18.40;99.90;;;;;;7388102;19;20142;-78
2023/09/01 03:30:12;;;;;;;2.67;1.40;;;18.30;99.90;;;;;;7388947;19;20138;-78
2023/09/01 03:32:38;;;;;;;1.73;0.98;;;18.40;99.90;;;;;;7387950;19;20171;-78
2023/09/01 03:35:05;;;;;;;2.22;0.98;;;18.10;99.90;;;;;;7388625;19;20137;-78
2023/09/01 03:37:31;;;;;;;1.40;0.93;;;18.20;99.90;;;;;;7389316;19;20917;-77
2023/09/01 03:39:57;;;;;;;1.65;1.20;;;18.30;99.90;;;;;;7391594;19;20204;-79
2023/09/01 03:42:23;;;;;;;2.78;1.60;;;18.40;99.90;;;;;;7388074;19;20137;-78
2023/09/01 03:44:49;;;;;;;3.05;1.38;;;18.50;99.90;;;;;;7387849;19;20150;-77
2023/09/01 03:47:14;;;;;;;1.40;0.82;;;18.40;99.90;;;;;;7388465;19;20131;-79
2023/09/01 03:49:40;;;;;;;1.27;1.08;;;18.40;99.90;;;;;;7386057;19;20139;-79
2023/09/01 03:52:06;;;;;;;2.30;0.90;;;18.40;99.90;;;;;;7386977;19;20161;-78
2023/09/01 03:54:33;;;;;;;2.20;1.30;;;18.40;99.90;;;;;;7389360;19;20150;-78
2023/09/01 03:56:59;;;;;;;1.67;1.25;;;18.30;99.90;;;;;;7387776;19;20126;-79
2023/09/01 03:59:25;;;;;;;2.95;1.40;;;18.30;99.90;;;;;;7390853;19;20140;-79
2023/09/01 04:01:50;;;;;;;1.00;0.90;;;18.20;99.90;;;;;;7388349;19;20179;-79
2023/09/01 04:04:18;;;;;;;1.83;1.00;;;18.10;99.90;;;;;;7385738;19;20174;-78
2023/09/01 04:06:44;;;;;;;1.50;0.95;;;18.00;99.90;;;;;;7388219;19;20573;-79
2023/09/01 04:09:11;;;;;;;1.50;1.30;;;17.90;99.90;;;;;;7383285;19;20142;-79
2023/09/01 04:11:37;;;;;;;3.45;1.02;;;18.10;99.90;;;;;;7387878;19;20152;-78
2023/09/01 04:14:03;;;;;;;1.73;1.00;;;18.20;99.90;;;;;;7387703;19;20218;-78
2023/09/01 04:16:29;;;;;;;0.90;0.85;;;18.30;99.90;;;;;;7387834;19;20150;-78
2023/09/01 04:18:55;;;;;;;2.17;1.20;;;18.30;99.90;;;;;;7388842;19;20145;-79
2023/09/01 04:21:21;;;;;;;3.92;1.10;;;18.20;99.90;;;;;;7388425;19;20139;-78
2023/09/01 04:23:47;;;;;;;1.73;1.10;;;18.20;99.90;;;;;;7386514;19;20146;-78
2023/09/01 04:26:13;;;;;;;3.40;1.35;;;18.10;99.90;;;;;;7386253;19;22016;-78
2023/09/01 04:28:39;;;;;;;1.85;0.85;;;18.00;99.90;;;;;;7386598;19;20138;-78
2023/09/01 04:31:25;;;;;;;1.83;1.10;;;18.00;99.90;;;;;;7386676;19;20138;-77
2023/09/01 04:33:50;;;;;;;2.05;1.20;;;17.90;99.90;;;;;;7387649;19;20165;-79
2023/09/01 04:36:16;;;;;;;1.73;1.15;;;18.10;99.90;;;;;;7386456;19;20134;-79
2023/09/01 04:38:42;;;;;;;1.83;1.23;;;18.30;99.90;;;;;;7387434;19;20144;-78
2023/09/01 04:41:08;;;;;;;2.42;1.20;;;18.50;99.90;;;;;;7388057;19;20145;-78
2023/09/01 04:43:33;;;;;;;1.40;1.02;;;18.30;99.90;;;;;;7387268;19;20579;-78
2023/09/01 04:45:59;;;;;;;3.22;1.05;;;18.00;99.90;;;;;;7387088;19;20202;-78
2023/09/01 04:48:26;;;;;;;1.77;1.05;;;18.10;99.90;;;;;;7385878;19;20154;-77
2023/09/01 04:50:52;;;;;;;1.80;0.93;;;18.10;99.90;;;;;;7388535;19;20138;-80
2023/09/01 04:53:18;;;;;;;2.20;1.20;;;18.30;99.90;;;;;;7385532;19;20179;-78
2023/09/01 04:55:44;;;;;;;2.00;1.38;;;18.30;99.90;;;;;;7385554;19;20150;-79
2023/09/01 04:58:10;;;;;;;3.60;1.75;;;18.40;99.90;;;;;;7385592;19;20586;-80
2023/09/01 05:00:39;;;;;;;3.10;1.35;;;18.50;99.90;;;;;;7383259;19;20519;-80
2023/09/01 05:03:04;;;;;;;2.20;1.17;;;18.40;99.90;;;;;;7388738;19;20131;-79
2023/09/01 05:05:30;;;;;;;1.83;1.25;;;18.40;99.90;;;;;;7382620;19;20139;-80
2023/09/01 05:07:56;;;;;;;2.40;1.23;;;18.40;99.90;;;;;;7385126;19;20484;-78
2023/09/01 05:10:22;;;;;;;1.52;0.90;;;18.30;99.90;;;;;;7386183;19;20947;-79
2023/09/01 05:12:48;;;;;;;1.42;1.00;;;18.20;99.90;;;;;;7383027;19;20146;-79
2023/09/01 05:15:18;;;;;;;2.65;1.10;;;18.30;99.90;;;;;;7386714;19;20442;-79
2023/09/01 05:17:45;;;;;;;1.55;0.95;;;18.50;99.90;;;;;;7384796;19;20157;-79
2023/09/01 05:20:11;;;;;;;2.28;0.98;;;18.40;99.90;;;;;;7384694;19;20249;-78
2023/09/01 05:22:38;;;;;;;2.20;0.90;;;18.40;99.90;;;;;;7385603;19;20157;-77
2023/09/01 05:25:04;;;;;;;1.70;1.00;;;18.40;99.90;;;;;;7386230;19;20253;-77
2023/09/01 05:27:30;;;;;;;3.28;1.27;;;18.40;99.90;;;;;;7384589;19;20146;-77
2023/09/01 05:29:55;;;;;;;0.98;0.88;;;18.50;99.90;;;;;;7384120;19;20454;-78
2023/09/01 05:32:22;;;;;;;4.03;1.13;;;18.50;99.90;;;;;;7385075;19;20166;-77
2023/09/01 05:34:48;;;;;;;1.20;0.80;;;18.70;99.90;;;;;;7385303;19;20142;-77
2023/09/01 05:37:13;;;;;;;1.77;0.80;;;18.70;99.90;;;;;;7384879;19;20142;-77
2023/09/01 05:39:40;;;;;;;1.85;0.85;;;18.70;99.90;;;;;;7386295;19;20138;-79
2023/09/01 05:42:10;;;;;;;2.70;1.10;;;18.80;99.90;;;;;;7386487;19;20207;-77
2023/09/01 05:44:37;;;;;;;4.25;1.20;;;18.70;99.90;;;;;;7387129;19;20131;-78
2023/09/01 05:47:06;;;;;;;2.08;1.02;;;18.80;99.90;;;;;;7392014;19;20143;-82
2023/09/01 05:49:32;;;;;;;1.40;0.90;;;18.80;99.90;;;;;;7389980;19;20142;-79
2023/09/01 05:51:59;;;;;;;2.70;1.23;;;18.80;99.90;;;;;;7390302;19;20146;-83
2023/09/01 05:54:25;;;;;;;1.73;1.13;;;18.80;99.90;;;;;;7392755;19;20543;-81
2023/09/01 05:56:51;;;;;;;2.58;1.60;;;18.80;99.90;;;;;;7392693;19;20138;-81
2023/09/01 05:59:17;;;;;;;1.73;1.20;;;18.70;99.90;;;;;;7393245;19;20849;-81
2023/09/01 06:01:43;;;;;;;3.90;1.27;;;18.70;99.90;;;;;;7392713;19;20469;-77
2023/09/01 06:04:09;;;;;;;3.92;1.40;;;18.70;99.90;;;;;;7391029;19;20178;-75
2023/09/01 06:06:35;;;;;;;1.80;1.23;;;18.70;99.90;;;;;;7391658;19;20134;-75
2023/09/01 06:09:05;;;;;;;4.20;1.35;;;18.70;99.90;;;;;;7390320;19;20139;-76
2023/09/01 06:11:31;;;;;;;4.53;1.55;;;18.70;99.90;;;;;;7388650;19;20150;-75
2023/09/01 06:13:58;;;;;;;2.95;1.25;;;18.70;99.90;;;;;;7391335;19;20135;-76
2023/09/01 06:16:25;;;;;;;5.05;1.90;;;18.70;99.90;;;;;;7390446;19;20167;-76
2023/09/01 06:18:52;;;;;;;3.50;1.50;;;18.70;99.90;;;;;;7391952;19;20495;-75
2023/09/01 06:21:17;;;;;;;1.75;1.27;;;18.70;99.90;;;;;;7391700;19;20139;-75
2023/09/01 06:23:44;;;;;;;3.38;1.58;;;18.70;99.90;;;;;;7390935;19;20976;-76
2023/09/01 06:26:11;;;;;;;2.47;1.30;;;18.50;99.90;;;;;;7391169;19;20146;-76
2023/09/01 06:28:39;;;;;;;2.17;1.42;;;18.50;99.90;;;;;;7390694;19;20131;-74
2023/09/01 06:31:05;;;;;;;4.97;1.45;;;18.40;99.90;;;;;;7390972;19;20142;-75
2023/09/01 06:33:30;;;;;;;4.82;1.30;;;18.60;99.90;;;;;;7390077;19;20158;-75
2023/09/01 06:35:56;;;;;;;4.25;1.92;;;18.60;99.90;;;;;;7392287;19;20210;-76
2023/09/01 06:38:22;;;;;;;2.97;1.25;;;18.60;99.90;;;;;;7390034;19;20163;-76
2023/09/01 06:40:49;;;;;;;5.00;1.70;;;18.60;99.90;;;;;;7391693;19;20138;-76
2023/09/01 06:43:14;;;;;;;3.53;1.40;;;18.60;99.90;;;;;;7391003;19;20162;-75
2023/09/01 06:45:40;;;;;;;2.45;1.33;;;18.60;99.90;;;;;;7390035;19;20604;-76
2023/09/01 06:48:06;;;;;;;2.78;0.95;;;18.50;99.90;;;;;;7389938;19;20154;-76
2023/09/01 06:50:32;;;;;;;1.70;1.17;;;18.40;99.90;;;;;;7389835;19;20614;-75
2023/09/01 06:52:59;;;;;;;1.52;0.90;;;18.50;99.90;;;;;;7390481;19;20222;-76
2023/09/01 06:55:24;;;;;;;2.13;1.30;;;18.50;99.90;;;;;;7387542;19;20161;-76
2023/09/01 06:57:50;;;;;;;2.78;1.35;;;18.40;99.90;;;;;;7391546;19;20480;-76
2023/09/01 07:00:16;;;;;;;1.98;1.20;;;18.50;99.90;;;;;;7391270;19;20223;-78
2023/09/01 07:02:42;;;;;;;4.32;3.00;;;18.50;99.90;;;;;;7391988;19;20165;-76
2023/09/01 07:05:08;;;;;;;2.22;1.63;;;18.50;99.90;;;;;;7386839;19;20178;-75
2023/09/01 07:07:33;;;;;;;2.38;1.23;;;18.50;99.90;;;;;;7389645;19;20130;-75
2023/09/01 07:09:59;;;;;;;2.92;1.20;;;18.50;99.90;;;;;;7385819;19;20146;-75
2023/09/01 07:12:25;;;;;;;2.38;1.20;;;18.50;99.90;;;;;;7390194;19;20149;-75
2023/09/01 07:14:51;;;;;;;2.50;1.27;;;18.60;99.90;;;;;;7392746;19;20140;-75
2023/09/01 07:17:24;;;;;;;1.25;1.05;;;18.60;99.90;;;;;;7381179;19;20138;-76
2023/09/01 07:19:49;;;;;;;3.42;1.13;;;18.60;99.90;;;;;;7391798;19;20245;-76
2023/09/01 07:22:15;;;;;;;1.25;1.13;;;18.50;99.90;;;;;;7387090;19;20153;-76
2023/09/01 07:24:41;;;;;;;2.78;1.40;;;18.60;99.90;;;;;;7388579;19;20148;-76
2023/09/01 07:27:07;;;;;;;3.80;1.33;;;18.60;99.90;;;;;;7388699;19;20173;-75
2023/09/01 07:29:33;;;;;;;0.98;0.88;;;18.60;99.90;;;;;;7382664;19;20147;-76
2023/09/01 07:32:00;;;;;;;1.52;1.13;;;18.60;99.90;;;;;;7392136;19;20174;-77
2023/09/01 07:34:26;;;;;;;2.45;1.05;;;18.50;99.90;;;;;;7387897;19;20469;-76
2023/09/01 07:36:52;;;;;;;2.25;0.90;;;18.50;99.90;;;;;;7391330;19;20146;-76
2023/09/01 07:39:18;;;;;;;1.40;0.88;;;18.40;99.90;;;;;;7389844;19;20163;-76
2023/09/01 07:41:44;;;;;;;3.30;1.10;;;18.50;99.90;;;;;;7389533;19;20643;-75
2023/09/01 07:44:09;;;;;;;2.08;1.58;;;18.50;99.90;;;;;;7389616;19;20221;-75
2023/09/01 07:46:35;;;;;;;1.63;1.35;;;18.60;99.90;;;;;;7391007;19;20250;-76
2023/09/01 07:49:02;;;;;;;1.27;1.00;;;18.60;99.90;;;;;;7388773;19;20145;-75
2023/09/01 07:51:28;;;;;;;2.63;1.00;;;18.80;99.90;;;;;;7388353;19;20146;-76
2023/09/01 07:53:54;;;;;;;2.60;1.08;;;18.80;99.90;;;;;;7390581;19;20130;-75
2023/09/01 07:56:23;;;;;;;3.95;1.13;;;18.90;99.90;;;;;;7387915;19;20563;-75
2023/09/01 07:58:49;;;;;;;1.17;0.73;;;19.10;99.90;;;;;;7389704;19;20150;-75
2023/09/01 08:01:15;;;;;;;1.63;0.70;;;19.10;99.90;;;;;;7387485;19;20233;-75
2023/09/01 08:03:41;;;;;;;1.80;0.95;;;19.10;99.90;;;;;;7388465;19;20611;-75
2023/09/01 08:06:06;;;;;;;1.52;0.95;;;19.20;99.90;;;;;;7388135;19;20155;-74
2023/09/01 08:08:32;;;;;;;3.28;1.20;;;19.30;99.90;;;;;;7386089;19;20149;-75
2023/09/01 08:10:58;;;;;;;1.23;0.73;;;19.40;99.90;;;;;;7382382;19;20137;-75
2023/09/01 08:13:26;;;;;;;3.95;1.08;;;19.30;99.90;;;;;;7385366;19;20135;-74
2023/09/01 08:15:51;;;;;;;0.98;0.80;;;19.20;99.90;;;;;;7390076;19;20432;-75
2023/09/01 08:18:17;;;;;;;2.63;0.90;;;19.20;99.90;;;;;;7388947;19;20161;-75
2023/09/01 08:20:43;;;;;;;0.90;0.70;;;19.30;99.90;;;;;;7388223;19;20130;-75
2023/09/01 08:23:10;;;;;;;0.82;0.65;;;19.30;99.90;;;;;;7390591;19;20587;-75
2023/09/01 08:25:37;;;;;;;1.85;1.00;;;19.40;99.90;;;;;;7387774;19;20552;-76
2023/09/01 08:28:03;;;;;;;2.75;1.02;;;19.50;99.90;;;;;;7387029;19;20134;-75
2023/09/01 08:30:29;;;;;;;1.30;1.00;;;19.40;99.90;;;;;;7387970;19;20169;-75
2023/09/01 08:32:55;;;;;;;1.63;0.90;;;19.40;99.90;;;;;;7388611;19;20219;-76
2023/09/01 08:35:21;;;;;;;3.60;1.38;;;19.40;99.90;;;;;;7386481;19;20161;-74
2023/09/01 08:37:47;;;;;;;3.90;0.95;;;19.50;99.90;;;;;;7387297;19;20142;-75
2023/09/01 08:40:13;;;;;;;1.35;1.08;;;19.70;99.90;;;;;;7389468;19;20123;-75
2023/09/01 08:42:49;;;;;;;1.20;0.98;;;19.80;99.90;;;;;;7386249;19;20135;-76
2023/09/01 08:45:18;;;;;;;2.17;1.27;;;20.00;99.90;;;;;;7385009;19;20195;-75
2023/09/01 08:47:48;;;;;;;1.73;1.00;;;20.10;99.90;;;;;;7387545;19;20134;-75
2023/09/01 08:50:17;;;;;;;1.45;1.10;;;19.90;99.90;;;;;;7388829;19;20131;-75
2023/09/01 08:52:45;;;;;;;1.50;1.00;;;19.50;99.90;;;;;;7390772;19;20135;-75
2023/09/01 08:55:16;;;;;;;1.08;0.90;;;19.60;99.90;;;;;;7386439;19;20152;-75
2023/09/01 08:57:44;;;;;;;2.65;1.00;;;19.70;99.90;;;;;;7388526;19;20174;-76
2023/09/01 09:00:10;;;;;;;1.05;0.80;;;19.80;99.90;;;;;;7388716;19;20181;-76
2023/09/01 09:02:43;;;;;;;1.30;1.20;;;19.90;99.90;;;;;;7389431;19;20591;-77
2023/09/01 09:05:12;;;;;;;1.60;1.20;;;20.00;99.90;;;;;;7380255;19;20182;-76
2023/09/01 09:07:37;;;;;;;0.95;0.50;;;19.90;99.90;;;;;;7386556;19;20151;-75
2023/09/01 09:10:06;;;;;;;1.50;0.65;;;19.90;99.90;;;;;;7384459;19;20139;-76
2023/09/01 09:12:39;;;;;;;0.70;0.60;;;20.10;99.90;;;;;;7386073;19;20607;-76
2023/09/01 09:15:06;;;;;;;1.10;0.90;;;20.40;99.90;;;;;;7387393;19;20149;-75
2023/09/01 09:17:45;;;;;;;1.15;0.75;;;20.70;99.90;;;;;;7386351;19;21025;-76
2023/09/01 09:20:18;;;;;;;1.10;0.90;;;21.00;99.90;;;;;;7394850;19;20668;-80
2023/09/01 09:23:01;;;;;;;1.38;0.65;;;21.30;99.90;;;;;;7394282;19;20155;-77
2023/09/01 09:25:29;;;;;;;1.40;1.10;;;21.40;99.90;;;;;;7394938;19;20495;-78
2023/09/01 09:28:00;;;;;;;0.60;0.60;;;21.60;99.90;;;;;;7394272;19;20210;-77
2023/09/01 09:30:26;;;;;;;1.13;1.02;;;21.80;99.90;;;;;;7396104;19;20159;-77
2023/09/01 09:33:04;;;;;;;1.50;1.05;;;22.00;99.90;;;;;;7395938;19;20627;-77
2023/09/01 09:35:30;;;;;;;1.75;0.93;;;21.90;99.90;;;;;;7391762;19;20139;-78
2023/09/01 09:38:00;;;;;;;1.65;0.80;;;22.00;99.90;;;;;;7392920;19;20146;-78
2023/09/01 09:40:26;;;;;;;0.93;0.65;;;22.00;99.90;;;;;;7395668;19;20164;-78
2023/09/01 09:42:52;;;;;;;1.05;0.60;;;21.90;99.90;;;;;;7395200;19;20135;-77
2023/09/01 09:45:24;;;;;;;0.60;0.60;;;21.80;99.90;;;;;;7394174;19;20733;-77
2023/09/01 09:47:50;;;;;;;1.95;1.00;;;21.80;99.90;;;;;;7396738;19;20145;-77
2023/09/01 09:50:20;;;;;;;1.90;1.20;;;21.70;99.90;;;;;;7393782;19;20221;-78
2023/09/01 09:52:57;;;;;;;1.63;1.00;;;21.50;99.90;;;;;;7394288;19;20155;-78
2023/09/01 09:55:29;;;;;;;1.98;0.90;;;21.40;99.90;;;;;;7392411;19;20225;-76
2023/09/01 09:58:08;;;;;;;1.42;0.73;;;21.30;99.90;;;;;;7393930;19;20508;-76
2023/09/01 10:00:40;;;;;;;1.40;0.80;;;21.10;99.90;;;;;;7393915;19;20215;-78
2023/09/01 10:03:07;;;;;;;0.90;0.80;;;21.10;99.90;;;;;;7395845;19;20149;-77
2023/09/01 10:05:34;;;;;;;1.42;1.13;;;21.10;99.90;;;;;;7393992;19;20154;-76
2023/09/01 10:08:05;;;;;;;1.25;0.85;;;21.10;99.90;;;;;;7394333;19;20139;-78
2023/09/01 10:10:33;;;;;;;0.95;0.70;;;21.00;99.90;;;;;;7394138;19;20488;-77
2023/09/01 10:13:04;;;;;;;1.33;1.02;;;21.00;99.90;;;;;;7393845;19;20139;-78
2023/09/01 10:15:35;;;;;;;0.70;0.70;;;20.90;99.90;;;;;;7394483;19;20142;-77
2023/09/01 10:18:03;;;;;;;5.63;1.20;;;20.90;99.90;;;;;;7393874;19;20161;-79
2023/09/01 10:20:34;;;;;;;1.10;0.90;;;20.80;99.90;;;;;;7393558;19;20135;-78
2023/09/01 10:23:08;;;;;;;1.63;1.20;;;20.80;99.90;;;;;;7393986;19;20202;-78
2023/09/01 10:25:34;;;;;;;1.90;1.00;;;20.80;99.90;;;;;;7395487;19;20240;-79
2023/09/01 10:28:13;;;;;;;1.50;1.15;;;20.90;99.90;;;;;;7393959;19;20574;-78
2023/09/01 10:30:45;;;;;;;1.65;1.05;;;20.90;99.90;;;;;;7394089;19;20259;-78
2023/09/01 10:33:16;;;;;;;1.00;0.85;;;20.80;99.90;;;;;;7393409;19;20142;-78
2023/09/01 10:35:48;;;;;;;1.60;1.00;;;20.90;99.90;;;;;;7393188;19;20158;-77
2023/09/01 10:38:22;;;;;;;2.58;1.00;;;20.80;99.90;;;;;;7393689;19;20161;-75
2023/09/01 10:40:54;;;;;;;2.25;1.10;;;20.90;99.90;;;;;;7393028;19;20285;-76
2023/09/01 10:43:35;;;;;;;1.70;0.90;;;20.90;99.90;;;;;;7393796;19;20214;-75
2023/09/01 10:46:14;;;;;;;2.05;0.90;;;21.00;99.90;;;;;;7396258;19;20153;-76
2023/09/01 10:49:00;;;;;;;2.67;1.20;;;21.00;99.90;;;;;;7392524;19;20150;-76
2023/09/01 10:51:29;;;;;;;1.58;1.20;;;20.90;99.90;;;;;;7393493;19;20154;-76
2023/09/01 10:53:56;;;;;;;1.50;0.90;;;21.00;99.90;;;;;;7392040;19;20573;-76
2023/09/01 10:56:24;;;;;;;2.83;1.80;;;21.20;99.90;;;;;;7392917;19;20147;-77
2023/09/01 10:58:52;;;;;;;2.08;1.20;;;21.20;99.90;;;;;;7394025;19;20488;-75
2023/09/01 11:01:24;;;;;;;2.08;1.38;;;21.30;99.90;;;;;;7392049;19;20142;-76
2023/09/01 11:03:52;;;;;;;1.42;1.05;;;21.40;99.90;;;;;;7393409;19;20154;-77
2023/09/01 11:06:17;;;;;;;1.83;1.25;;;21.40;99.90;;;;;;7392395;19;20130;-77
2023/09/01 11:09:01;;;;;;;1.95;1.25;;;21.50;99.90;;;;;;7391966;19;20161;-76
2023/09/01 11:11:28;;;;;;;1.80;1.48;;;21.60;99.90;;;;;;7391247;19;20165;-78
2023/09/01 11:13:58;;;;;;;2.50;1.00;;;21.70;99.90;;;;;;7391768;19;20155;-78
2023/09/01 11:16:25;;;;;;;2.42;1.58;;;21.70;99.90;;;;;;7390002;19;20158;-81
2023/09/01 11:19:01;;;;;;;1.75;1.30;;;21.70;99.90;;;;;;7391424;19;20461;-78
2023/09/01 11:21:27;;;;;;;2.08;1.20;;;21.70;99.90;;;;;;7389515;19;20141;-77
2023/09/01 11:24:00;;;;;;;1.38;1.00;;;21.80;99.90;;;;;;7391505;19;20153;-74
2023/09/01 11:26:26;;;;;;;1.58;1.00;;;21.80;99.90;;;;;;7392925;19;20143;-77
2023/09/01 11:28:53;;;;;;;1.90;0.90;;;21.90;99.90;;;;;;7389759;19;20177;-74
2023/09/01 11:31:19;;;;;;;3.78;2.72;;;22.00;99.90;;;;;;7391930;19;20151;-77
2023/09/01 11:33:54;;;;;;;2.35;1.20;;;22.30;99.90;;;;;;7391918;19;20500;-77
2023/09/01 11:36:20;;;;;;;1.42;0.90;;;22.30;99.90;;;;;;7391948;19;20240;-77
2023/09/01 11:38:46;;;;;;;1.35;0.77;;;22.20;99.90;;;;;;7392823;19;20135;-76
2023/09/01 11:41:19;;;;;;;2.75;1.10;;;22.20;99.90;;;;;;7391150;19;20153;-77
2023/09/01 11:43:45;;;;;;;1.33;0.90;;;22.20;99.90;;;;;;7388459;19;20265;-76
2023/09/01 11:46:12;;;;;;;3.35;1.10;;;22.20;99.90;;;;;;7390260;19;20622;-77
2023/09/01 11:48:38;;;;;;;1.83;1.60;;;22.10;99.90;;;;;;7390695;19;20138;-77
2023/09/01 11:51:04;;;;;;;2.15;1.20;;;22.10;99.90;;;;;;7390959;19;20139;-77
2023/09/01 11:53:35;;;;;;;1.27;1.00;;;22.20;99.90;;;;;;7393042;19;20167;-76
2023/09/01 11:56:18;;;;;;;1.40;1.00;;;22.50;99.90;;;;;;7390190;19;20579;-76
2023/09/01 11:58:43;;;;;;;2.20;1.23;;;22.60;99.90;;;;;;7392704;19;20143;-78
2023/09/01 12:01:14;;;;;;;2.78;1.00;;;22.70;99.90;;;;;;7393882;19;20139;-77
2023/09/01 12:03:50;;;;;;;1.92;1.40;;;23.00;99.90;;;;;;7391797;19;20143;-77
2023/09/01 12:06:19;;;;;;;1.95;1.35;;;22.90;99.90;;;;;;7387704;19;20217;-76
2023/09/01 12:08:45;;;;;;;1.40;1.00;;;22.90;99.90;;;;;;7390694;19;20237;-77
2023/09/01 12:11:16;;;;;;;3.42;1.23;;;23.00;99.90;;;;;;7389260;19;20745;-77
2023/09/01 12:13:45;;;;;;;1.23;0.80;;;23.10;99.90;;;;;;7391301;19;20598;-77
2023/09/01 12:16:22;;;;;;;1.13;0.77;;;23.30;99.90;;;;;;7392317;19;20145;-76
2023/09/01 12:18:49;;;;;;;0.90;0.80;;;23.40;99.90;;;;;;7391264;19;20126;-78
2023/09/01 12:21:15;;;;;;;1.30;1.00;;;23.50;99.90;;;;;;7390974;19;20170;-76
2023/09/01 12:23:42;;;;;;;1.08;0.98;;;23.50;99.90;;;;;;7390036;19;20130;-77
2023/09/01 12:26:09;;;;;;;2.03;1.05;;;23.50;99.90;;;;;;7389703;19;20167;-75
2023/09/01 12:28:37;;;;;;;1.08;0.98;;;23.60;99.90;;;;;;7390402;19;20131;-77
2023/09/01 12:31:04;;;;;;;3.30;2.58;;;23.70;99.90;;;;;;7388351;19;20467;-76
2023/09/01 12:33:30;;;;;;;1.65;1.13;;;23.80;99.90;;;;;;7390517;19;20146;-77
2023/09/01 12:35:57;;;;;;;1.75;1.25;;;23.70;99.90;;;;;;7388762;19;20194;-76
2023/09/01 12:38:23;;;;;;;2.80;1.15;;;23.70;99.90;;;;;;7389284;19;20138;-77
2023/09/01 12:40:49;;;;;;;1.17;0.85;;;23.60;99.90;;;;;;7362456;19;20152;-74
2023/09/01 12:43:15;;;;;;;1.90;0.82;;;23.70;99.90;;;;;;7387817;19;20532;-76
2023/09/01 12:45:41;;;;;;;2.15;1.10;;;23.50;99.90;;;;;;7386996;19;20139;-74
2023/09/01 12:48:07;;;;;;;1.02;0.90;;;23.40;99.90;;;;;;7384003;19;20126;-74
2023/09/01 12:50:33;;;;;;;0.93;0.80;;;23.40;99.90;;;;;;7386830;19;20165;-76